MyFlightRoute - Storm Chaser


To sort multiple columns, hold SHIFT key while clicking column header

ICAOVisibilityWindSpeedGustCeilingWeatherTempDew PointSpreadFlight CategoryMETAR
KABQ10.002330 180006.70-5.6012.3VFRKABQ 190152Z 09023G30KT 10SM SCT130 BKN180 07/M06 A2997 RMK AO2 PK WND 09031/0129 SLP149 T00671056
KAMA10.007 90006.10-5.6011.7VFRKAMA 190153Z 02007KT 10SM BKN090 OVC110 06/M06 A3009 RMK AO2 SLP191 T00611056
KAPA10.0010 55000.00-11.7011.7VFRKAPA 190153Z 02010KT 10SM OVC055 00/M12 A3015 RMK AO2 SLP236 T00001117
KASE10.000 4400-3.90-11.107.2VFRKASE 190153Z 00000KT 10SM OVC044 M04/M11 A3004 RMK AO2 SLP177 T10391111
KBFI10.004 6.702.803.9VFRKBFI 190153Z VRB04KT 10SM FEW030 07/03 A3057 RMK AO2 SLP350 T00670028
KBFL5.000 HAZE 16.106.1010MVFRKBFL 190154Z 00000KT 5SM HZ CLR 16/06 A2988 RMK AO2 SLP114 T01610061
KBIL10.0010 110000.60-3.904.5VFRKBIL 190153Z 31010KT 10SM OVC110 01/M04 A3028 RMK AO2 SLP283 T00061039 $
KBOI10.0011 2.80-5.608.4VFRKBOI 190153Z 32011KT 10SM CLR 03/M06 A3030 RMK AO2 SLP279 T00281056
KBUR10.009 22.80-6.1028.9VFRKBUR 190153Z 35009KT 10SM CLR 23/M06 A2974 RMK AO2 SLP061 T02281061 $
KBZN10.003 10000-2.20-4.402.2VFRKBZN 190156Z 07003KT 10SM FEW040 OVC100 M02/M04 A3034 RMK AO2 SLP318 T10221044
KCMA10.000 17.8011.106.7VFRKCMA 190155Z 00000KT 10SM CLR 18/11 A2976 RMK AO2 SLP086 T01780111
KCNO10.004 18.302.8015.5VFRKCNO 190153Z 26004KT 10SM CLR 18/03 A2976 RMK AO2 SLP074 T01830028
KCOS10.007 8000-0.60-7.206.6VFRKCOS 190154Z 32007KT 10SM FEW030 OVC080 M01/M07 A3014 RMK AO2 SLP241 T10061072
KCPR10.000 3400-4.40-8.303.9VFRKCPR 190153Z 00000KT 10SM BKN034 BKN042 OVC070 M04/M08 A3021 RMK AO2 SLP274 T10441083
KCRQ8.007 13.3010.602.7VFRKCRQ 190153Z 16007KT 8SM CLR 13/11 A2977 RMK AO2 SLP079 T01330106
KDEN10.001422 7000-0.60-8.908.3VFRKDEN 190153Z 03014G22KT 10SM BKN070 OVC220 M01/M09 A3016 RMK AO2 SLP227 T10061089 $
KEGE10.000 9000-2.20-12.8010.6VFRKEGE 190156Z AUTO 10SM OVC090 M02/M13 RMK AO2 SLPNO T10221128 FZRANO PNO $
KELP10.006 15.60-11.7027.3VFRKELP 190151Z 12006KT 10SM FEW120 SCT150 16/M12 A2986 RMK AO2 SLP085 T01561117 $
KEMT10.004 20.007.0013VFRKEMT 190145Z VRB04KT 10SM CLR 20/07 A2975
KEUG10.006 4.402.202.2VFRKEUG 190154Z 03006KT 10SM FEW020 04/02 A3044 RMK AO2 SLP309 T00440022
KFAT10.000 16.106.1010VFRKFAT 190153Z 00000KT 10SM CLR 16/06 A2987 RMK AO2 SLP114 HZ DSNT ALQDS T01610061 $
KFLG10.003 110001.70-11.7013.4VFRKFLG 190157Z 11003KT 10SM BKN110 02/M12 A2992 RMK AO2 SLP127 T00171117
KFMN10.004 5.60-8.9014.5VFRKFMN 190153Z VRB04KT 10SM CLR 06/M09 A2991 RMK AO2 SLP136 T00561089
KFUL10.003 16.107.808.3VFRKFUL 190153Z 20003KT 10SM CLR 16/08 A2975 RMK AO2 SLP074 T01610078
KGCN10.006 5.00-10.6015.6VFRKGCN 190154Z AUTO 08006KT 10SM CLR 05/M11 A2992 RMK AO2 SLP122 T00501106 TSNO
KGEG10.004 7000-0.60-2.802.2VFRKGEG 190153Z 35004KT 10SM BKN070 M01/M03 A3046 RMK AO2 SLP342 T10061028
KGJT10.001323 2.80-13.9016.7VFRKGJT 190153Z 04013G23KT 10SM CLR 03/M14 A3004 RMK AO2 SLP186 T00281139
KGPI10.000 10000-1.10-3.302.2VFRKGPI 190155Z 00000KT 10SM OVC100 M01/M03 A3042 RMK AO2 SLP336 T10111033
KHHR10.005 15.0011.703.3VFRKHHR 190153Z 23005KT 10SM CLR 15/12 A2975 RMK AO2 SLP074 T01500117 $
KHLN10.007 70000.00-3.903.9VFRKHLN 190153Z AUTO 28007KT 10SM FEW043 SCT055 OVC070 00/M04 A3036 RMK AO2 SLP331 T00001039
KHND10.008 15.60-13.9029.5VFRKHND 190156Z 03008KT 10SM CLR 16/M14 A2989 RMK AO2 SLP137 T01561139
KIFP10.0014 20.00-12.0032VFRKIFP 190155Z AUTO 03014KT 10SM CLR 20/M12 A2978 RMK AO2
KINS10.005 11.10-15.4026.5VFRKINS 190158Z AUTO 15005KT 10SM CLR 11/M15 A2988 RMK AO2 SLP110 T01111154 $
KJAC10.0013 -10.00-12.202.2VFRKJAC 190156Z 03013KT 10SM CLR M10/M12 A3019 RMK AO2 SLP312 T11001122
KLAS10.0012 16.10-15.0031.1VFRKLAS 190156Z 04012KT 10SM FEW160 SCT220 16/M15 A2987 RMK AO2 WSHFT 0045 SLP108 T01611150 $
KLAX0.507 200FOG 13.3012.201.1LIFRKLAX 190153Z 24007KT 1/2SM FG VV002 13/12 A2975 RMK SLP074 T01330122
KLGB3.006 200MIST 12.8012.200.6LIFRKLGB 190153Z 16006KT 3SM BR OVC002 13/12 A2976 RMK AO2 SLP077 T01280122 $
KLSV10.003 15.00-11.2026.2VFRKLSV 190158Z 04003KT 10SM FEW220 15/M11 A2987 RMK AO2A SLP117 WND DATA ESTMD ALSTG/SLP ESTMD T01501112 $
KMFR9.003 6004.401.702.7IFRKMFR 190153Z 05003KT 9SM OVC006 04/02 A3033 RMK AO2 SLP276 T00440017
KMHV10.006 13.00-10.0023VFRKMHV 190140Z AUTO 31006KT 10SM CLR 13/M10 A2988 RMK A01
KMRY10.004 15.004.4010.6VFRKMRY 190154Z 12004KT 10SM CLR 15/04 A2988 RMK AO2 SLP129 T01500044
KMSO10.004 70001.10-2.803.9VFRKMSO 190153Z 30004KT 10SM SCT038 BKN070 OVC090 01/M03 A3039 RMK AO2 SLP320 T00111028
KMYF9.003 13.3010.003.3VFRKMYF 190153Z 15003KT 9SM CLR 13/10 A2980 RMK AO2 SLP088 T01330100
KNYL10.004 21.70-4.4026.1VFRKNYL 190157Z AUTO 05004KT 10SM CLR 22/M04 A2975 RMK AO2 SLP072 T02171044 $
KOAK10.007 22.20-8.3030.5VFRKOAK 190153Z 34007KT 10SM FEW180 22/M08 A2990 RMK AO2 SLP124 T02221083
KOLM10.004 5.002.202.8VFRKOLM 190154Z 03004KT 10SM CLR 05/02 A3055 RMK AO2 SLP345 T00500022
KONT10.005 21.10-2.8023.9VFRKONT 190153Z 07005KT 10SM CLR 21/M03 A2975 RMK AO2 SLP070 T02111028 $
KOTH7.005 8.906.702.2VFRKOTH 190156Z 03005KT 7SM CLR 09/07 A3040 RMK AO2 SLP295 T00890067
KOXR10.006 16.109.406.7VFRKOXR 190151Z 28006KT 10SM CLR 16/09 A2976 RMK AO2 SLP077 T01610094
KPAE10.004 5.003.301.7VFRKPAE 190153Z 35004KT 10SM CLR 05/03 A3056 RMK AO2 SLP353 T00500033
KPDX10.008 7.802.805VFRKPDX 190153Z 32008KT 10SM FEW025 08/03 A3048 RMK AO2 SLP320 T00780028
KPHX10.005 1600020.00-8.9028.9VFRKPHX 190151Z 29005KT 10SM SCT130 BKN160 BKN200 20/M09 A2975 RMK AO2 SLP067 VIRGA T02001089 $
KPOC10.005 18.000.0018VFRKPOC 190147Z VRB05KT 10SM CLR 18/00 A2976
KPRC10.004 1200010.00-13.9023.9VFRKPRC 190153Z 18004KT 10SM BKN120 10/M14 A2986 RMK AO2 SLP087 T01001139
KPSC10.003 1.70-1.102.8VFRKPSC 190153Z VRB03KT 10SM CLR 02/M01 A3051 RMK AO2 SLP337 T00171011 $
KPSP10.000 22.80-2.2025VFRKPSP 190153Z 00000KT 10SM CLR 23/M02 A2977 RMK AO2 SLP078 T02281022 $
KRAL10.001219 22.80-5.6028.4VFRKRAL 190153Z 01012G19KT 340V040 10SM CLR 23/M06 A2975 RMK AO2 SLP063 T02281056 $
KRDD10.007 17.20-8.3025.5VFRKRDD 190153Z 01007KT 10SM CLR 17/M08 A3009 RMK AO2 SLP188 T01721083
KRIV10.007 17.50-4.5022VFRKRIV 190158Z AUTO 35007KT 10SM CLR 18/M04 A2977 RMK AO2 SLP079 T01751045
KRNM10.000 24.40-5.0029.4VFRKRNM 181853Z 00000KT 10SM CLR 24/M05 A2986 RMK AO2 SLP103 T02441050
KRNO10.0010 6.10-12.2018.3VFRKRNO 190155Z 03010KT 10SM FEW220 06/M12 A3014 RMK AO2 SLP205 T00611122 $
KSAC10.001526 18.90-5.6024.5VFRKSAC 190153Z 34015G26KT 10SM CLR 19/M06 A2990 RMK AO2 PK WND 35028/0108 SLP124 T01891056
KSAN10.006 15.6011.104.5VFRKSAN 190151Z 16006KT 10SM FEW010 SCT190 16/11 A2981 RMK AO2 SLP094 T01560111
KSBA10.004 17.803.3014.5VFRKSBA 190153Z 27004KT 10SM CLR 18/03 A2976 RMK AO2 SLP079 T01780033
KSBD10.001015 23.00-5.0028VFRKSBD 190152Z 36010G15KT 10SM CLR 23/M05 A2977
KSBP10.009 26.004.0022VFRKSBP 182256Z 03009KT 10SM SKC 26/04 A2981
KSDM9.000 13.3010.602.7VFRKSDM 190153Z 00000KT 9SM SCT006 13/11 A2979 RMK AO2 SLP086 T01330106
KSEA10.006 5.602.802.8VFRKSEA 190153Z 36006KT 10SM FEW020 FEW250 06/03 A3055 RMK AO2 SLP353 T00560028
KSEE7.005 14.0011.003VFRKSEE 190147Z VRB05KT 7SM SKC 14/11 A2979
KSFO10.0011 18.903.3015.6VFRKSFO 190156Z 36011KT 10SM FEW200 19/03 A2990 RMK AO2 SLP124 T01890033
KSJC10.007 21.10-11.1032.2VFRKSJC 190153Z 33007KT 10SM FEW050 FEW100 21/M11 A2989 RMK AO2 SLP119 T02111111
KSLC10.003 90000.60-3.303.9VFRKSLC 190154Z 27003KT 10SM FEW040 BKN090 01/M03 A3014 RMK AO2 SLP220 T00061033
KSMF10.001829 18.30-3.3021.6VFRKSMF 190153Z 34018G29KT 10SM FEW250 18/M03 A2991 RMK AO2 PK WND 35029/0151 SLP127 T01831033
KSMO10.005 15.0012.802.2VFRKSMO 190151Z AUTO 24005KT 10SM CLR 15/13 A2975 RMK AO2 SLP073 T01500128 $
KSMX10.001521 20.605.0015.6VFRKSMX 190151Z 03015G21KT 10SM CLR 21/05 A2980 RMK AO2 SLP093 T02060050
KSNA4.008 300MIST 13.3011.701.6LIFRKSNA 190153Z 22008KT 4SM BR BKN003 13/12 A2976 RMK AO2 SLP075 T01330117
KSUN10.000 -2.00-8.006VFRKSUN 182347Z 00000KT 10SM SCT085 M02/M08 A3023
KTOA10.000 15.0012.003VFRKTOA 190147Z 00000KT 10SM SKC 15/12 A2976 RMK LAST
KTPH10.0012 3.90-15.0018.9VFRKTPH 190156Z AUTO 02012KT 10SM CLR 04/M15 A3004 RMK AO2 SLP165 T00391150 $
KTUS10.000 20.60-12.8033.4VFRKTUS 190153Z 00000KT 10SM CLR 21/M13 A2983 RMK AO2 SLP076 T02061128
KVCV10.000 0.000.000VFRKVCV 190145Z 00000KT 10SM SKC A2988
KVGT10.004 17.80-15.6033.4VFRKVGT 190153Z 01004KT 10SM CLR 18/M16 A2983 RMK AO2 SLP109 T01781156
KVNY10.0011 23.30-5.6028.9VFRKVNY 190151Z 02011KT 10SM CLR 23/M06 A2975 RMK AO2 SLP068 T02331056
KWHP10.001015 22.00-6.0028VFRKWHP 190155Z 30010G15KT 10SM SKC 22/M06 A2980
KWJF10.003 15.00-6.7021.7VFRKWJF 190156Z 10003KT 10SM CLR 15/M07 A2986 RMK AO2 SLP118 T01501067
KYKM10.003 2.80-2.805.6VFRKYKM 190153Z 27003KT 10SM CLR 03/M03 A3049 RMK AO2 SLP339 T00281028